»·PEaware :: N427LJ KSAC-KDVO

N427LJ :: KSAC-KDVO

FLIGHT INFORMATION

Flight Status: Arrived
Operator: Privately registered:
United States
More flights under this callsign
Pilot: Anonymous 27948 (27948)
Aircraft: CESSNA 172 SKYHAWK
(C172)
More flights by this aircraft type
Origin: KSAC Sacramento Executive
United States
Destination: KDVO Gnoss
United States
More flights between these airports :: More routes between these airports
Route: SAC V494 STS
File this flight plan on PilotEdge
Remarks:
Altitude:
(Current/Filed)
6,000ft
Speed:
(Current/Filed)
120kts
Departed: 19-May-20 04:19 PM
Arrived: 19-May-20 05:05 PM
Distance/Time
Traveled:
55nm/0:46
Distance/Time
To Go:
Arrived

Flight Plot

Page will automatically refresh every two minutes.

Flight plan parsing failed; only flown route is shown


Map Options




Map Legend


Flown Route
Filed Route
Departure Airport
Arrival Airport
Navaid (VOR, NDB)
Fix

Horizontal Profiles

Position Reports

Time Latitude Longitude Heading Altitude Ground
Speed
19-May-20 16:04 38.512656 -121.498422 213 20ft 0kts
19-May-20 16:05 38.512656 -121.498422 213 20ft 0kts
19-May-20 16:06 38.512656 -121.498422 213 20ft 0kts
19-May-20 16:06 38.512655 -121.498422 213 20ft 0kts
19-May-20 16:08 38.512656 -121.498422 213 20ft 0kts
19-May-20 16:09 38.512656 -121.498422 213 20ft 0kts
19-May-20 16:09 38.512656 -121.498422 213 20ft 0kts
19-May-20 16:10 38.511920 -121.497919 133 20ft 4kts
19-May-20 16:12 38.512659 -121.496197 32 20ft 16kts
19-May-20 16:12 38.515815 -121.493590 32 22ft 14kts
19-May-20 16:13 38.518426 -121.491425 35 23ft 12kts
19-May-20 16:14 38.519424 -121.490385 95 23ft 0kts
19-May-20 16:15 38.519424 -121.490385 95 23ft 0kts
19-May-20 16:16 38.519373 -121.490322 140 24ft 0kts
19-May-20 16:17 38.518486 -121.489703 217 23ft 13kts
19-May-20 16:18 38.507379 -121.505547 264 723ft 77kts
19-May-20 16:19 38.504039 -121.532836 275 1706ft 86kts
19-May-20 16:20 38.507105 -121.560501 275 2736ft 80kts
19-May-20 16:21 38.505913 -121.588794 265 3659ft 81kts
19-May-20 16:22 38.504251 -121.617456 266 4523ft 82kts
19-May-20 16:23 38.502711 -121.646619 266 5337ft 83kts
19-May-20 16:24 38.501172 -121.676907 265 5948ft 101kts
19-May-20 16:25 38.499228 -121.717719 266 5946ft 122kts
19-May-20 16:26 38.497018 -121.762180 266 5945ft 126kts
19-May-20 16:27 38.494744 -121.807016 266 5945ft 126kts
19-May-20 16:28 38.492446 -121.851825 266 5945ft 126kts
19-May-20 16:29 38.490127 -121.896692 266 5945ft 126kts
19-May-20 16:30 38.487788 -121.941614 266 5945ft 126kts
19-May-20 16:31 38.485437 -121.986416 266 5945ft 126kts
19-May-20 16:32 38.483069 -122.031206 266 5945ft 126kts
19-May-20 16:33 38.480681 -122.076066 266 5945ft 126kts
19-May-20 16:34 38.478282 -122.120930 266 5945ft 126kts
19-May-20 16:35 38.476939 -122.165795 272 5945ft 126kts
19-May-20 16:36 38.479114 -122.210659 273 5945ft 126kts
19-May-20 16:37 38.481397 -122.255636 273 5945ft 126kts
19-May-20 16:38 38.483659 -122.300498 273 5945ft 126kts
19-May-20 16:39 38.485906 -122.345404 273 5945ft 126kts
19-May-20 16:40 38.488132 -122.390262 273 5945ft 126kts
19-May-20 16:41 38.490348 -122.435278 273 5945ft 126kts
19-May-20 16:42 38.492536 -122.480070 273 5945ft 126kts
19-May-20 16:43 38.494711 -122.524937 273 5945ft 126kts
19-May-20 16:44 38.496870 -122.569862 273 5945ft 126kts
19-May-20 16:45 38.499014 -122.614805 273 5945ft 126kts
19-May-20 16:46 38.501141 -122.659756 273 5945ft 126kts
19-May-20 16:47 38.503252 -122.704662 273 5945ft 126kts
19-May-20 16:48 38.505346 -122.749396 273 5943ft 122kts
19-May-20 16:49 38.505339 -122.791295 238 5935ft 118kts
19-May-20 16:50 38.480782 -122.782235 138 5407ft 116kts
19-May-20 16:51 38.453153 -122.763759 160 4815ft 112kts
19-May-20 16:52 38.424413 -122.745223 144 4214ft 122kts
19-May-20 16:53 38.397677 -122.722591 150 3943ft 105kts
19-May-20 16:54 38.372631 -122.703854 148 3944ft 102kts
19-May-20 16:55 38.348028 -122.684602 148 3946ft 107kts
19-May-20 16:56 38.322024 -122.664217 148 3945ft 111kts
19-May-20 16:57 38.295625 -122.643547 148 3846ft 114kts
19-May-20 16:58 38.269109 -122.622900 148 3167ft 94kts
19-May-20 16:59 38.248897 -122.607126 148 2596ft 79kts
19-May-20 17:00 38.228530 -122.591529 155 2044ft 90kts
19-May-20 17:01 38.204453 -122.581697 163 1445ft 91kts
19-May-20 17:02 38.179973 -122.572517 166 850ft 91kts
19-May-20 17:03 38.157121 -122.566882 157 285ft 81kts
19-May-20 17:04 38.144205 -122.557565 147 7ft 10kts
19-May-20 17:05 38.140940 -122.557629 143 7ft 11kts
19-May-20 17:06 38.140208 -122.556800 55 7ft 0kts

Navigation Log

Ident Type
Flight plan parsing failed, navigation log unavailable